Time;durP1;ratioP1;P1;durP2;ratioP2;P2;SDS_P1;SDS_P2;PMS_P1;PMS_P2;Temp;Humidity;BMP_temperature;BMP_pressure;BME280_temperature;BME280_humidity;BME280_pressure;Samples;Min_cycle;Max_cycle;Signal;HPM_P1;HPM_P2
2022/05/22 00:01:53;;;;;;;10.15;5.15;;;;;;;10.23;87.13;99613.84;5007342;28;20037;-56
2022/05/22 00:04:18;;;;;;;12.05;4.60;;;;;;;10.14;89.98;99613.38;5006113;28;20026;-56
2022/05/22 00:06:44;;;;;;;12.63;5.15;;;;;;;9.96;89.29;99605.44;5006406;28;20626;-56
2022/05/22 00:09:10;;;;;;;9.60;5.43;;;;;;;9.85;91.00;99598.16;5004986;28;20376;-57
2022/05/22 00:11:35;;;;;;;12.27;5.55;;;;;;;9.86;90.61;99594.44;4989984;28;20108;-56
2022/05/22 00:14:01;;;;;;;8.00;5.20;;;;;;;9.95;90.44;99601.09;5007029;28;20781;-57
2022/05/22 00:16:36;;;;;;;7.25;4.10;;;;;;;10.08;89.23;99598.25;5001166;28;20037;-57
2022/05/22 00:19:03;;;;;;;8.30;4.38;;;;;;;10.04;89.44;99599.72;5006564;28;20037;-56
2022/05/22 00:21:29;;;;;;;9.68;4.88;;;;;;;10.01;89.49;99596.69;5003296;28;20034;-57
2022/05/22 00:23:54;;;;;;;10.02;4.90;;;;;;;9.94;90.71;99602.16;4987824;28;20102;-57
2022/05/22 00:26:20;;;;;;;10.13;4.90;;;;;;;10.07;89.75;99609.97;5007224;28;20464;-57
2022/05/22 00:28:45;;;;;;;8.00;5.32;;;;;;;10.07;89.56;99625.25;5007044;28;20554;-56
2022/05/22 00:31:11;;;;;;;14.13;5.68;;;;;;;9.90;89.44;99628.56;4983672;28;20058;-56
2022/05/22 00:33:37;;;;;;;13.85;6.75;;;;;;;9.74;90.44;99623.06;5006063;28;20041;-56
2022/05/22 00:36:03;;;;;;;18.17;5.85;;;;;;;9.65;92.24;99611.81;5006754;28;20030;-57
2022/05/22 00:38:29;;;;;;;13.55;5.72;;;;;;;9.74;92.21;99607.00;4987667;28;20026;-56
2022/05/22 00:40:54;;;;;;;10.82;5.82;;;;;;;9.93;92.40;99604.03;5004856;28;20649;-55
2022/05/22 00:43:34;;;;;;;11.77;5.60;;;;;;;9.71;93.05;99600.22;5006399;28;20698;-56
2022/05/22 00:46:00;;;;;;;12.20;4.72;;;;;;;9.74;91.33;99591.75;5005653;28;20029;-55
2022/05/22 00:48:26;;;;;;;15.07;5.63;;;;;;;9.60;92.03;99599.13;4983035;28;20046;-56
2022/05/22 00:50:55;;;;;;;14.23;6.20;;;;;;;9.64;93.18;99602.19;5003920;28;20034;-56
2022/05/22 00:53:20;;;;;;;11.80;6.07;;;;;;;9.75;92.65;99584.53;4986333;28;20513;-56
2022/05/22 00:55:46;;;;;;;10.32;6.50;;;;;;;9.80;93.15;99579.28;4989119;28;20026;-56
2022/05/22 00:58:14;;;;;;;13.38;5.93;;;;;;;9.76;90.81;99583.47;5006196;28;20582;-56
2022/05/22 01:00:39;;;;;;;11.55;6.70;;;;;;;9.74;91.69;99585.56;4985681;28;20026;-55
2022/05/22 01:03:28;;;;;;;15.77;7.10;;;;;;;9.70;92.03;99577.97;4983828;28;22027;-56
2022/05/22 01:05:55;;;;;;;11.32;6.10;;;;;;;9.64;93.60;99581.56;5011570;28;20025;-56
2022/05/22 01:08:21;;;;;;;12.38;5.50;;;;;;;9.43;93.63;99579.38;4983837;28;20460;-55
2022/05/22 01:10:52;;;;;;;13.52;5.35;;;;;;;9.57;94.54;99590.75;4999258;28;20484;-55
2022/05/22 01:13:20;;;;;;;17.38;11.82;;;;;;;9.68;93.72;99603.34;5005228;28;20045;-55
2022/05/22 01:15:46;;;;;;;22.45;13.77;;;;;;;9.52;93.74;99604.00;4981251;28;20113;-55
2022/05/22 01:18:11;;;;;;;16.92;11.98;;;;;;;9.71;93.43;99593.00;4989223;28;20097;-55
2022/05/22 01:20:44;;;;;;;39.08;28.25;;;;;;;9.79;93.44;99585.72;5005399;28;20663;-55
2022/05/22 01:23:09;;;;;;;10.05;7.00;;;;;;;9.73;93.03;99557.97;5005295;28;20111;-54
2022/05/22 01:25:35;;;;;;;12.07;5.13;;;;;;;9.69;93.98;99557.63;4999571;28;20476;-56
2022/05/22 01:28:01;;;;;;;10.82;5.28;;;;;;;9.60;93.69;99560.84;5006518;28;20073;-55
2022/05/22 01:30:28;;;;;;;10.63;5.55;;;;;;;9.61;94.33;99551.75;4971648;28;20112;-55
2022/05/22 01:32:53;;;;;;;13.63;5.40;;;;;;;9.67;94.05;99542.84;5002998;28;20030;-57
2022/05/22 01:35:21;;;;;;;9.48;5.28;;;;;;;9.70;93.67;99542.38;5005095;28;20026;-55
2022/05/22 01:37:48;;;;;;;12.60;5.95;;;;;;;9.67;92.25;99549.00;5005162;28;20361;-55
2022/05/22 01:40:14;;;;;;;9.10;5.88;;;;;;;9.65;93.43;99552.94;5006738;28;20087;-56
2022/05/22 01:42:42;;;;;;;14.38;6.43;;;;;;;9.68;94.25;99565.88;5005495;28;20029;-56
2022/05/22 01:45:09;;;;;;;11.68;5.97;;;;;;;9.56;92.03;99573.88;5005152;28;20380;-56
2022/05/22 01:47:35;;;;;;;9.77;6.35;;;;;;;9.29;94.00;99563.53;5005549;28;20034;-54
2022/05/22 01:50:01;;;;;;;9.50;5.60;;;;;;;9.44;96.74;99570.34;5003240;28;20508;-56
2022/05/22 01:52:26;;;;;;;13.65;6.07;;;;;;;9.39;94.86;99572.88;4986316;28;20030;-55
2022/05/22 01:54:52;;;;;;;10.48;5.72;;;;;;;9.29;95.44;99576.91;5004196;28;20100;-57
2022/05/22 01:57:18;;;;;;;12.65;5.90;;;;;;;9.15;95.36;99572.75;4985075;28;20030;-54
2022/05/22 01:59:43;;;;;;;12.75;5.97;;;;;;;9.09;96.35;99562.97;4987959;28;20541;-55
2022/05/22 02:02:09;;;;;;;15.73;5.93;;;;;;;9.02;97.36;99563.03;5004206;28;20365;-54
2022/05/22 02:04:35;;;;;;;10.73;5.50;;;;;;;9.14;98.79;99567.66;5003365;28;20118;-55
2022/05/22 02:09:44;;;;;;;12.65;5.43;;;;;;;9.12;98.13;99565.19;5004621;28;20119;-55
2022/05/22 02:12:10;;;;;;;16.58;6.13;;;;;;;8.91;98.98;99558.44;5005555;28;20436;-55
2022/05/22 02:14:35;;;;;;;11.23;6.03;;;;;;;8.97;100.00;99554.06;4988039;28;20031;-55
2022/05/22 02:17:01;;;;;;;11.70;6.97;;;;;;;8.91;99.69;99555.78;4998365;28;20062;-56
2022/05/22 02:19:27;;;;;;;11.00;6.10;;;;;;;9.01;98.91;99557.91;5004756;28;20029;-55
2022/05/22 02:21:53;;;;;;;10.73;6.15;;;;;;;9.06;98.58;99547.34;5004850;28;20480;-55
2022/05/22 02:24:19;;;;;;;14.45;6.35;;;;;;;9.26;96.82;99552.44;5004530;28;20120;-56
2022/05/22 02:26:44;;;;;;;12.48;5.80;;;;;;;9.13;95.29;99548.09;5005169;28;20141;-56
2022/05/22 02:29:10;;;;;;;11.73;5.80;;;;;;;9.11;95.54;99542.16;5005972;28;20113;-55
2022/05/22 02:31:36;;;;;;;14.25;6.07;;;;;;;8.98;95.41;99535.09;5005249;28;20364;-54
2022/05/22 02:34:01;;;;;;;12.60;5.68;;;;;;;8.83;97.15;99527.47;5003873;28;20033;-55
2022/05/22 02:36:27;;;;;;;10.73;6.20;;;;;;;9.04;98.66;99534.22;4970243;28;20727;-56
2022/05/22 02:38:53;;;;;;;10.73;6.15;;;;;;;8.81;96.98;99537.59;5004925;28;20034;-54
2022/05/22 02:41:20;;;;;;;14.50;6.10;;;;;;;8.72;98.05;99533.56;5005649;28;20123;-55
2022/05/22 02:43:46;;;;;;;13.65;6.50;;;;;;;8.83;98.53;99532.81;5005239;28;20786;-56
2022/05/22 02:46:14;;;;;;;12.63;5.90;;;;;;;8.83;98.03;99529.31;5003230;28;20681;-54
2022/05/22 02:48:40;;;;;;;11.38;5.18;;;;;;;8.81;97.31;99524.22;5003226;28;20685;-54
2022/05/22 02:51:06;;;;;;;10.35;5.40;;;;;;;8.82;97.52;99523.16;5005615;28;20026;-55
2022/05/22 02:53:33;;;;;;;10.93;5.63;;;;;;;8.74;97.52;99518.13;4983764;28;20026;-54
2022/05/22 02:56:10;;;;;;;9.85;5.38;;;;;;;8.62;97.54;99509.22;5005603;28;20029;-53
2022/05/22 02:58:35;;;;;;;16.65;6.38;;;;;;;8.74;97.08;99507.44;5003030;28;20026;-54
2022/05/22 03:01:01;;;;;;;9.98;5.82;;;;;;;8.68;96.53;99508.31;5004729;28;20034;-55
2022/05/22 03:03:26;;;;;;;9.48;5.63;;;;;;;8.55;96.37;99505.81;5003220;28;20029;-55
2022/05/22 03:08:36;;;;;;;9.68;5.90;;;;;;;8.38;97.20;99506.34;5004257;28;20112;-55
2022/05/22 03:11:03;;;;;;;11.52;5.78;;;;;;;8.40;98.41;99496.28;5004648;28;20029;-55
2022/05/22 03:13:29;;;;;;;8.25;5.95;;;;;;;8.45;98.02;99486.81;5003394;28;20026;-55
2022/05/22 03:15:54;;;;;;;13.07;6.63;;;;;;;8.54;100.00;99494.31;5003647;28;20113;-55
2022/05/22 03:18:20;;;;;;;13.02;7.03;;;;;;;8.68;100.00;99502.16;5007116;28;20065;-55
2022/05/22 03:20:46;;;;;;;12.18;5.63;;;;;;;8.60;98.36;99490.72;5008301;28;20483;-56
2022/05/22 03:23:13;;;;;;;10.35;5.03;;;;;;;8.41;95.62;99500.63;5007707;28;20092;-54
2022/05/22 03:25:39;;;;;;;10.20;5.00;;;;;;;8.32;96.23;99509.91;5003408;28;20520;-56
2022/05/22 03:28:05;;;;;;;7.95;5.03;;;;;;;8.23;95.36;99516.56;5007832;28;20133;-55
2022/05/22 03:30:30;;;;;;;10.13;5.22;;;;;;;8.06;96.62;99507.47;5007726;28;20509;-54
2022/05/22 03:32:56;;;;;;;8.73;5.10;;;;;;;8.16;96.66;99499.78;5004509;28;20125;-55
2022/05/22 03:35:21;;;;;;;12.18;6.68;;;;;;;7.98;100.00;99501.38;5007335;28;20105;-57
2022/05/22 03:37:47;;;;;;;16.05;6.78;;;;;;;8.13;100.00;99510.91;5008451;28;20033;-56
2022/05/22 03:40:16;;;;;;;14.52;6.50;;;;;;;8.33;100.00;99506.19;5002894;28;20412;-57
2022/05/22 03:42:41;;;;;;;9.27;5.60;;;;;;;8.39;98.38;99501.84;5007604;28;20375;-57
2022/05/22 03:45:08;;;;;;;13.10;6.15;;;;;;;8.32;97.68;99496.56;5007273;28;20022;-56
2022/05/22 03:47:33;;;;;;;11.15;5.85;;;;;;;8.48;98.20;99494.38;5003069;28;20516;-57
2022/05/22 03:50:04;;;;;;;11.23;5.60;;;;;;;8.58;96.73;99495.47;5002141;28;20037;-56
2022/05/22 03:52:35;;;;;;;8.32;5.28;;;;;;;8.42;94.17;99494.22;5006549;28;20026;-56
2022/05/22 03:55:00;;;;;;;;;;;;;;;8.31;93.82;99486.94;5006813;28;20370;-55
2022/05/22 03:57:28;;;;;;;9.57;5.70;;;;;;;8.33;97.63;99484.81;5007546;28;19948;-57
2022/05/22 03:59:54;;;;;;;13.00;7.10;;;;;;;8.89;99.56;99480.34;5003860;28;20029;-56
2022/05/22 04:02:19;;;;;;;14.48;6.28;;;;;;;9.15;97.77;99479.16;5001820;28;20023;-58
2022/05/22 04:04:45;;;;;;;13.00;6.10;;;;;;;10.58;89.70;99476.41;5008209;28;20037;-56
2022/05/22 04:07:11;;;;;;;11.68;6.07;;;;;;;11.28;81.96;99480.69;5007751;28;20520;-55
2022/05/22 04:09:36;;;;;;;9.70;5.32;;;;;;;11.54;81.02;99481.19;4987413;28;20036;-57
2022/05/22 04:12:06;;;;;;;8.55;5.28;;;;;;;12.25;77.10;99482.31;5007036;28;20034;-57
2022/05/22 04:14:32;;;;;;;7.38;4.68;;;;;;;12.89;72.36;99479.09;5007300;28;20076;-57
2022/05/22 04:16:57;;;;;;;9.38;4.70;;;;;;;13.21;71.31;99485.66;4990445;28;20034;-56
2022/05/22 04:19:23;;;;;;;7.15;4.22;;;;;;;14.01;67.76;99482.06;4978560;28;20491;-56
2022/05/22 04:21:49;;;;;;;6.72;4.05;;;;;;;14.63;65.50;99480.56;4992217;28;20434;-56
2022/05/22 04:27:05;;;;;;;6.07;3.97;;;;;;;15.49;62.03;99494.59;5005447;28;20041;-55
2022/05/22 04:29:31;;;;;;;14.85;4.13;;;;;;;15.65;60.92;99500.81;5006458;28;20029;-56
2022/05/22 04:31:57;;;;;;;9.48;3.53;;;;;;;15.09;62.14;99506.91;4972174;28;20562;-57
2022/05/22 04:34:22;;;;;;;9.68;3.42;;;;;;;15.80;60.69;99506.28;5005722;28;20034;-57
2022/05/22 04:36:48;;;;;;;5.68;2.95;;;;;;;15.81;60.67;99496.28;5003122;28;20038;-57
2022/05/22 04:39:13;;;;;;;11.05;3.33;;;;;;;15.93;59.63;99494.09;5005558;28;20732;-57
2022/05/22 04:41:39;;;;;;;6.88;3.35;;;;;;;16.87;56.68;99491.72;4988825;28;20034;-57
2022/05/22 04:44:05;;;;;;;5.75;3.20;;;;;;;17.06;56.71;99489.22;5006159;28;20081;-57
2022/05/22 04:46:30;;;;;;;8.60;3.15;;;;;;;16.54;59.02;99488.56;5006861;28;20021;-56
2022/05/22 04:48:56;;;;;;;7.75;3.35;;;;;;;17.20;58.46;99489.44;5006243;28;20065;-57
2022/05/22 04:51:22;;;;;;;7.53;3.35;;;;;;;18.32;54.49;99488.56;5004685;28;20365;-57
2022/05/22 04:53:47;;;;;;;6.53;3.35;;;;;;;18.42;53.49;99482.22;5005238;28;20431;-57
2022/05/22 04:56:13;;;;;;;10.35;3.60;;;;;;;18.58;52.77;99485.56;5000083;28;20496;-57
2022/05/22 04:58:39;;;;;;;7.55;3.33;;;;;;;18.24;54.13;99486.44;5005290;28;20582;-56
2022/05/22 05:01:06;;;;;;;7.00;3.47;;;;;;;19.25;51.52;99487.47;5006575;28;20506;-56
2022/05/22 05:03:31;;;;;;;6.00;3.80;;;;;;;19.06;51.81;99480.09;4998901;28;20072;-57
2022/05/22 05:05:57;;;;;;;7.47;3.60;;;;;;;19.26;52.04;99478.19;5003845;28;20034;-57
2022/05/22 05:08:24;;;;;;;6.88;3.30;;;;;;;19.32;51.36;99477.00;5006263;28;20097;-57
2022/05/22 05:10:51;;;;;;;6.90;3.35;;;;;;;19.55;51.25;99492.44;5005097;28;20440;-58
2022/05/22 05:13:17;;;;;;;8.80;3.60;;;;;;;19.94;50.05;99491.28;5004653;28;20041;-55
2022/05/22 05:15:43;;;;;;;7.57;3.30;;;;;;;20.17;49.69;99494.19;5004892;28;20038;-56
2022/05/22 05:18:08;;;;;;;9.38;3.28;;;;;;;20.90;47.96;99487.88;5005260;28;20045;-55
2022/05/22 05:20:34;;;;;;;7.53;3.10;;;;;;;20.28;49.08;99492.06;5005414;28;20129;-56
2022/05/22 05:23:04;;;;;;;11.25;3.30;;;;;;;20.63;48.63;99494.16;4976966;28;20145;-56
2022/05/22 05:25:32;;;;;;;8.02;3.20;;;;;;;20.93;47.96;99488.38;5005971;28;20523;-56
2022/05/22 05:27:58;;;;;;;8.53;3.30;;;;;;;20.41;48.59;99494.00;5000714;28;20036;-55
2022/05/22 05:30:23;;;;;;;4.97;2.85;;;;;;;21.19;47.85;99500.34;4989290;28;20033;-55
2022/05/22 05:32:56;;;;;;;4.75;2.88;;;;;;;20.93;48.37;99485.66;5005064;28;20033;-57
2022/05/22 05:35:22;;;;;;;8.25;3.30;;;;;;;21.67;46.97;99485.38;4999592;28;20029;-55
2022/05/22 05:37:48;;;;;;;5.70;3.28;;;;;;;22.07;46.37;99496.41;4987212;28;20057;-55
2022/05/22 05:40:17;;;;;;;13.40;3.65;;;;;;;21.88;45.28;99489.22;5003657;28;20062;-55
2022/05/22 05:42:42;;;;;;;;;;;;;;;21.61;46.70;99494.78;5003753;28;20096;-55
2022/05/22 05:45:09;;;;;;;8.30;3.00;;;;;;;22.16;46.25;99495.31;5005998;28;19917;-56
2022/05/22 05:47:35;;;;;;;7.43;3.25;;;;;;;22.11;45.97;99492.72;5001731;28;20065;-54
2022/05/22 05:50:00;;;;;;;9.88;3.40;;;;;;;22.96;44.08;99489.84;5005304;28;20400;-56
2022/05/22 05:52:26;;;;;;;8.05;3.25;;;;;;;22.53;45.70;99493.28;5002006;28;20068;-56
2022/05/22 05:54:51;;;;;;;6.55;3.20;;;;;;;23.36;43.99;99486.25;4985978;28;20041;-56
2022/05/22 05:57:20;;;;;;;11.38;3.35;;;;;;;22.39;45.13;99481.66;5005119;28;20022;-56
2022/05/22 05:59:46;;;;;;;8.38;3.45;;;;;;;23.48;43.51;99479.00;5005780;28;20038;-56
2022/05/22 06:02:14;;;;;;;5.82;3.10;;;;;;;23.06;44.84;99477.03;5005348;28;20030;-56
2022/05/22 06:04:40;;;;;;;6.03;3.40;;;;;;;23.74;43.21;99480.13;5005357;28;20439;-56
2022/05/22 06:07:07;;;;;;;6.80;3.13;;;;;;;23.48;44.46;99473.53;5001509;28;20026;-57
2022/05/22 06:09:32;;;;;;;7.80;3.60;;;;;;;24.45;41.67;99483.19;4977638;28;20480;-57
2022/05/22 06:11:58;;;;;;;10.07;3.40;;;;;;;24.06;43.23;99481.53;4999515;28;20073;-57
2022/05/22 06:14:23;;;;;;;10.07;3.17;;;;;;;23.40;44.72;99481.75;5003521;28;20451;-56
2022/05/22 06:16:52;;;;;;;7.22;3.25;;;;;;;23.63;44.97;99482.38;5005377;28;20501;-57
2022/05/22 06:19:53;;;;;;;6.45;3.50;;;;;;;24.69;42.05;99485.34;5003813;28;20037;-57
2022/05/22 06:22:06;;;;;;;5.80;3.10;;;;;;;24.48;42.62;99488.00;5003598;28;20585;-57
2022/05/22 06:24:36;;;;;;;8.00;3.40;;;;;;;24.62;42.55;99484.25;4999085;28;20041;-56
2022/05/22 06:27:02;;;;;;;10.80;3.70;;;;;;;25.57;40.33;99480.88;4999635;28;20573;-57
2022/05/22 06:29:28;;;;;;;5.65;3.20;;;;;;;25.24;41.32;99474.56;5005818;28;20037;-58
2022/05/22 06:31:53;;;;;;;7.25;3.40;;;;;;;25.07;41.53;99481.72;5004819;28;20033;-57
2022/05/22 06:34:22;;;;;;;6.93;3.30;;;;;;;25.61;40.89;99478.28;4987641;28;20427;-57
2022/05/22 06:36:48;;;;;;;7.68;3.60;;;;;;;24.82;42.20;99485.44;4988568;28;20038;-57
2022/05/22 06:41:58;;;;;;;7.80;3.47;;;;;;;24.77;43.60;99485.63;4999316;28;20087;-57
2022/05/22 06:44:23;;;;;;;8.25;3.15;;;;;;;25.53;41.67;99487.38;5003581;28;20037;-57
2022/05/22 06:46:49;;;;;;;6.72;3.35;;;;;;;26.04;40.41;99491.59;4984633;28;20208;-55
2022/05/22 06:49:15;;;;;;;10.43;3.17;;;;;;;26.33;40.13;99487.06;4999577;28;20022;-56
2022/05/22 06:51:40;;;;;;;8.43;3.00;;;;;;;26.10;40.90;99491.38;5003717;28;20054;-57
2022/05/22 06:54:06;;;;;;;7.70;2.88;;;;;;;26.11;40.22;99482.81;5007330;28;20131;-57
2022/05/22 06:56:34;;;;;;;7.88;3.13;;;;;;;25.96;40.86;99483.44;5007446;28;20079;-55
2022/05/22 06:59:00;;;;;;;6.28;2.88;;;;;;;26.27;39.94;99488.44;5006966;28;20036;-55
2022/05/22 07:01:26;;;;;;;8.15;2.80;;;;;;;25.96;40.69;99473.28;5008173;28;20030;-55
2022/05/22 07:03:52;;;;;;;7.95;2.70;;;;;;;27.34;38.79;99469.06;4988794;28;20089;-55
2022/05/22 07:06:17;;;;;;;6.60;3.28;;;;;;;26.57;39.67;99466.28;5007093;28;20030;-55
2022/05/22 07:08:43;;;;;;;8.20;2.78;;;;;;;26.45;40.29;99472.56;5003809;28;20033;-55
2022/05/22 07:14:07;;;;;;;5.82;2.80;;;;;;;27.70;38.58;99459.84;4991629;28;20057;-57
2022/05/22 07:16:36;;;;;;;7.18;3.17;;;;;;;26.86;40.06;99449.56;5003017;28;20041;-55
2022/05/22 07:19:03;;;;;;;8.10;3.25;;;;;;;27.60;38.39;99456.81;4972165;28;20603;-55
2022/05/22 07:21:28;;;;;;;8.60;3.00;;;;;;;27.23;38.80;99451.44;5006739;28;20022;-55
2022/05/22 07:23:54;;;;;;;8.55;3.15;;;;;;;28.24;37.66;99455.00;5006266;28;20068;-55
2022/05/22 07:26:21;;;;;;;9.73;3.20;;;;;;;27.15;39.52;99444.09;5008313;28;20116;-57
2022/05/22 07:28:47;;;;;;;6.38;3.10;;;;;;;27.83;36.80;99441.38;4990915;28;20517;-56
2022/05/22 07:31:20;;;;;;;9.32;3.25;;;;;;;28.60;35.76;99446.44;5007680;28;20030;-57
2022/05/22 07:33:45;;;;;;;8.15;3.38;;;;;;;27.26;38.94;99439.75;5007155;28;20104;-54
2022/05/22 07:36:11;;;;;;;9.57;3.60;;;;;;;27.30;38.55;99441.44;4999392;28;20041;-55
2022/05/22 07:38:36;;;;;;;9.60;3.50;;;;;;;27.51;38.20;99437.72;4986302;28;20507;-55
2022/05/22 07:41:02;;;;;;;7.43;3.33;;;;;;;27.07;38.85;99427.38;5004277;28;20061;-56
2022/05/22 07:43:28;;;;;;;6.65;3.10;;;;;;;26.97;39.48;99427.88;5003607;28;20657;-55
2022/05/22 07:45:54;;;;;;;9.13;3.95;;;;;;;28.01;37.01;99428.06;5005840;28;20061;-57
2022/05/22 07:48:20;;;;;;;9.60;3.92;;;;;;;28.08;37.18;99425.47;5004158;28;20392;-56
2022/05/22 07:50:46;;;;;;;7.30;3.63;;;;;;;27.08;37.83;99423.50;5005985;28;20034;-56
2022/05/22 07:53:11;;;;;;;9.50;3.60;;;;;;;27.56;37.79;99426.44;5006334;28;20053;-56
2022/05/22 07:55:40;;;;;;;9.95;3.72;;;;;;;27.40;38.28;99417.31;4980898;28;20029;-56
2022/05/22 07:58:05;;;;;;;8.50;3.83;;;;;;;27.34;38.87;99414.03;5008272;28;20026;-56
2022/05/22 08:00:31;;;;;;;11.40;4.60;;;;;;;26.57;39.91;99408.56;5008176;28;20022;-56
2022/05/22 08:02:56;;;;;;;6.72;3.50;;;;;;;27.16;39.04;99418.19;4990497;28;20034;-56
2022/05/22 08:05:22;;;;;;;8.07;4.15;;;;;;;27.53;39.10;99410.59;5007568;28;20539;-56
2022/05/22 08:07:48;;;;;;;9.90;4.13;;;;;;;27.20;39.66;99402.63;4979229;28;20474;-55
2022/05/22 08:10:14;;;;;;;9.63;4.80;;;;;;;26.72;39.75;99402.38;5007055;28;20042;-57
2022/05/22 08:12:45;;;;;;;9.73;4.43;;;;;;;28.29;38.12;99405.13;5004248;28;20061;-57
2022/05/22 08:15:12;;;;;;;9.25;4.47;;;;;;;27.72;39.02;99401.69;4972489;28;20444;-56
2022/05/22 08:17:38;;;;;;;10.50;4.05;;;;;;;28.26;38.58;99405.84;5006566;28;20034;-56
2022/05/22 08:20:08;;;;;;;7.72;3.72;;;;;;;27.42;40.22;99395.75;4986945;28;20388;-57
2022/05/22 08:22:34;;;;;;;10.07;4.50;;;;;;;27.40;39.93;99387.84;5006941;28;20152;-56
2022/05/22 08:25:00;;;;;;;10.85;4.07;;;;;;;27.06;40.67;99386.50;5005992;28;20225;-55
2022/05/22 08:27:27;;;;;;;6.85;4.05;;;;;;;27.79;38.91;99388.09;5002226;28;20026;-55
2022/05/22 08:29:53;;;;;;;8.43;4.40;;;;;;;27.71;39.01;99378.06;5006328;28;20049;-55
2022/05/22 08:32:19;;;;;;;7.50;4.30;;;;;;;25.97;42.03;99378.78;5012166;28;20062;-56
2022/05/22 08:34:44;;;;;;;8.15;4.38;;;;;;;26.34;42.33;99380.75;4989927;28;20069;-56
2022/05/22 08:37:10;;;;;;;8.05;4.18;;;;;;;27.27;39.70;99373.34;4976537;28;20088;-55
2022/05/22 08:39:36;;;;;;;9.30;4.40;;;;;;;26.58;40.17;99374.44;5001181;28;20026;-55
2022/05/22 08:42:01;;;;;;;6.75;3.67;;;;;;;26.77;41.39;99369.13;5006916;28;20117;-55
2022/05/22 08:44:31;;;;;;;7.38;4.38;;;;;;;25.55;42.90;99370.66;4966431;28;20042;-55
2022/05/22 08:47:03;;;;;;;8.82;4.00;;;;;;;25.59;42.31;99370.78;5005938;28;20109;-55
2022/05/22 08:50:02;;;;;;;8.65;3.75;;;;;;;25.33;44.13;99365.56;4980835;28;20041;-54
2022/05/22 08:52:46;;;;;;;10.60;4.55;;;;;;;25.10;44.62;99365.09;5002246;28;20049;-57
2022/05/22 09:01:12;;;;;;;7.00;3.42;;;;;;;22.57;44.02;99363.16;4991671;28;20079;-55
2022/05/22 09:03:44;;;;;;;10.35;2.85;;;;;;;23.74;41.86;99351.53;4988554;28;20341;-56
2022/05/22 09:06:10;;;;;;;7.50;3.40;;;;;;;25.67;39.79;99353.41;5005161;28;20435;-55
2022/05/22 09:08:40;;;;;;;8.07;2.95;;;;;;;26.54;39.52;99348.81;5005496;28;20026;-56
2022/05/22 09:11:34;;;;;;;7.93;2.92;;;;;;;27.58;36.66;99352.53;5001529;28;20478;-55
2022/05/22 09:14:10;;;;;;;7.15;2.85;;;;;;;23.68;40.63;99346.19;4978388;28;20038;-56
2022/05/22 09:17:37;;;;;;;8.30;2.47;;;;;;;25.23;40.81;99338.56;5004764;28;20030;-56
2022/05/22 09:20:21;;;;;;;7.07;2.80;;;;;;;26.43;38.60;99340.19;4978489;28;20037;-56
2022/05/22 09:23:05;;;;;;;7.65;2.65;;;;;;;26.87;37.73;99338.41;5002750;28;20026;-56
2022/05/22 09:25:52;;;;;;;8.65;2.80;;;;;;;27.13;37.75;99336.34;5001872;28;20368;-57
2022/05/22 09:28:23;;;;;;;6.32;3.03;;;;;;;28.13;37.90;99339.81;5006211;28;20041;-56
2022/05/22 09:31:18;;;;;;;6.88;3.13;;;;;;;28.49;35.47;99337.88;5006249;28;20124;-56
2022/05/22 09:33:53;;;;;;;10.07;3.42;;;;;;;27.31;37.98;99327.47;4988604;28;20132;-56
2022/05/22 09:36:34;;;;;;;10.07;3.20;;;;;;;27.95;36.17;99333.06;5000597;28;20037;-54
2022/05/22 09:39:21;;;;;;;6.28;3.10;;;;;;;27.41;37.10;99330.84;4982988;28;20026;-56
2022/05/22 09:42:09;;;;;;;9.15;3.58;;;;;;;25.35;40.14;99333.09;5004836;28;20033;-55
2022/05/22 09:44:53;;;;;;;10.03;3.50;;;;;;;24.40;42.15;99323.69;4976422;28;20035;-54
2022/05/22 09:47:28;;;;;;;10.05;3.03;;;;;;;25.93;38.35;99317.44;5005115;28;20658;-54
2022/05/22 09:50:38;;;;;;;6.13;2.88;;;;;;;24.78;40.95;99322.78;5005094;28;20033;-54
2022/05/22 09:53:03;;;;;;;;;;;;;;;24.04;41.53;99320.34;5000407;28;20099;-55
2022/05/22 09:55:39;;;;;;;9.07;3.20;;;;;;;23.95;41.48;99313.31;5006397;28;19925;-56
2022/05/22 09:58:29;;;;;;;8.05;2.80;;;;;;;25.18;40.40;99307.44;5005831;28;20022;-57
2022/05/22 10:01:07;;;;;;;9.95;3.25;;;;;;;23.16;42.30;99312.69;4980358;28;20595;-56
2022/05/22 10:03:54;;;;;;;7.22;2.85;;;;;;;24.05;42.28;99307.44;5001891;28;20091;-57
2022/05/22 10:06:48;;;;;;;7.82;2.63;;;;;;;24.07;42.44;99321.63;5003088;28;20026;-56
2022/05/22 10:09:20;;;;;;;6.05;2.22;;;;;;;21.63;42.39;99313.38;4969559;28;20077;-56
2022/05/22 10:12:01;;;;;;;3.40;1.80;;;;;;;22.15;41.10;99299.91;4999212;28;20038;-56
2022/05/22 10:14:55;;;;;;;4.65;1.88;;;;;;;24.38;37.18;99304.81;4986983;28;20873;-56
2022/05/22 10:17:56;;;;;;;7.22;2.40;;;;;;;22.27;40.17;99295.81;4986208;28;20034;-54
2022/05/22 10:20:47;;;;;;;6.63;2.35;;;;;;;23.71;38.44;99311.13;5000850;28;20901;-56
2022/05/22 10:23:26;;;;;;;5.13;1.98;;;;;;;24.77;39.42;99307.50;4988692;28;20048;-57
2022/05/22 10:26:02;;;;;;;5.63;2.20;;;;;;;25.69;36.91;99301.75;5004506;28;20068;-55
2022/05/22 10:28:38;;;;;;;5.82;1.80;;;;;;;24.54;37.58;99299.63;5004961;28;20037;-55
2022/05/22 10:31:09;;;;;;;4.53;1.77;;;;;;;21.81;40.55;99292.41;4992747;28;20030;-55
2022/05/22 10:33:43;;;;;;;8.35;2.00;;;;;;;21.53;40.32;99280.91;5008131;28;20026;-55
2022/05/22 10:36:10;;;;;;;3.28;1.70;;;;;;;23.21;37.22;99282.47;5008406;28;20042;-55
2022/05/22 10:38:50;;;;;;;8.63;2.20;;;;;;;22.90;38.15;99282.66;4989577;28;20030;-54
2022/05/22 10:44:20;;;;;;;4.00;2.17;;;;;;;23.82;35.89;99291.31;4984978;28;20505;-54
2022/05/22 10:46:53;;;;;;;6.38;1.80;;;;;;;22.68;37.55;99289.88;4990861;28;20044;-55
2022/05/22 10:49:24;;;;;;;6.05;1.90;;;;;;;23.47;39.60;99280.47;5007452;28;20168;-54
2022/05/22 10:51:59;;;;;;;5.43;2.13;;;;;;;23.56;37.68;99276.88;5009146;28;20030;-55
2022/05/22 10:54:29;;;;;;;6.60;2.10;;;;;;;23.45;36.58;99274.50;4966177;28;20060;-55
2022/05/22 10:57:05;;;;;;;8.88;2.20;;;;;;;24.36;37.71;99270.69;5003227;28;20551;-55
2022/05/22 10:59:31;;;;;;;6.07;2.10;;;;;;;24.59;35.16;99269.28;5005315;28;20030;-55
2022/05/22 11:02:03;;;;;;;4.82;1.65;;;;;;;23.79;37.32;99266.50;5007782;28;21191;-55
2022/05/22 11:04:41;;;;;;;5.38;1.70;;;;;;;25.38;35.25;99264.63;4990857;28;20034;-55
2022/05/22 11:07:07;;;;;;;5.28;1.90;;;;;;;23.77;35.52;99260.59;4986383;28;20034;-56
2022/05/22 11:09:53;;;;;;;3.92;1.60;;;;;;;22.73;37.04;99259.66;4982191;28;21760;-56
2022/05/22 11:12:20;;;;;;;4.15;1.75;;;;;;;21.58;40.51;99249.97;5004346;28;20500;-54
2022/05/22 11:14:49;;;;;;;5.32;2.08;;;;;;;21.16;40.73;99249.44;5006116;28;20124;-57
2022/05/22 11:17:22;;;;;;;6.65;1.92;;;;;;;22.00;40.32;99240.31;4975752;28;20650;-55
2022/05/22 11:19:49;;;;;;;5.72;1.70;;;;;;;21.39;40.75;99242.03;5008337;28;20049;-55
2022/05/22 11:22:18;;;;;;;4.53;1.65;;;;;;;22.25;38.18;99238.00;4986549;28;20041;-55
2022/05/22 11:25:04;;;;;;;6.32;1.85;;;;;;;22.10;39.29;99234.56;5006222;28;20121;-55
2022/05/22 11:28:04;;;;;;;4.00;1.80;;;;;;;22.33;38.68;99237.97;4990044;28;20058;-54
2022/05/22 11:30:48;;;;;;;6.32;1.75;;;;;;;22.49;41.20;99232.88;4982341;28;20027;-56
2022/05/22 11:33:39;;;;;;;7.07;2.10;;;;;;;21.32;42.26;99218.72;4983701;28;20054;-56
2022/05/22 11:36:28;;;;;;;4.00;1.73;;;;;;;23.31;39.36;99215.69;4985990;28;20034;-56
2022/05/22 11:38:58;;;;;;;4.63;1.90;;;;;;;23.75;38.03;99214.41;4971013;28;20041;-56
2022/05/22 11:41:38;;;;;;;5.35;2.03;;;;;;;23.39;38.69;99218.41;5003464;28;20389;-56
2022/05/22 11:44:31;;;;;;;7.63;1.98;;;;;;;22.50;39.51;99207.16;5004208;28;20571;-55
2022/05/22 11:47:25;;;;;;;4.20;1.98;;;;;;;22.15;40.02;99207.13;4984544;28;20053;-56
2022/05/22 11:50:02;;;;;;;4.32;1.90;;;;;;;23.07;40.79;99217.06;4997048;28;20530;-55
2022/05/22 11:52:56;;;;;;;4.65;2.03;;;;;;;22.95;38.74;99220.44;4988422;28;20038;-54
2022/05/22 11:55:36;;;;;;;4.70;1.80;;;;;;;23.73;39.90;99211.19;5005314;28;20030;-55
2022/05/22 11:58:10;;;;;;;6.35;2.20;;;;;;;24.43;38.31;99210.69;5006470;28;20042;-56
2022/05/22 12:01:19;;;;;;;6.25;2.17;;;;;;;23.92;37.82;99207.22;4987273;28;20030;-56
2022/05/22 12:04:03;;;;;;;4.53;1.83;;;;;;;24.11;38.73;99196.59;4947216;28;20032;-55
2022/05/22 12:06:55;;;;;;;8.98;2.28;;;;;;;23.11;39.75;99184.41;4999244;28;20072;-57
2022/05/22 12:09:31;;;;;;;5.38;2.00;;;;;;;22.27;41.23;99178.41;5006294;28;20058;-57
2022/05/22 12:12:15;;;;;;;4.35;2.00;;;;;;;23.00;39.42;99162.88;5005412;28;20034;-56